| time (UTC) | temp C | wind direction | speed KPH | gust KPH | rain 1hr cm | rain 24hr cm | rain mn cm | humidity % | barometer mb |
| 20260504185522 | 11 | 317 | 19.3 | 45.1 | 0.00 | 0.00 | 0.00 | 36 | 1014.6 |
| 20260504185031 | 11 | 315 | 27.4 | 46.7 | 0.00 | 0.00 | 0.00 | 35 | 1014.5 |
| 20260504184653 | 11 | 339 | 32.2 | 46.7 | 0.00 | 0.00 | 0.00 | 35 | 1014.4 |
| 20260504184042 | 11 | 315 | 20.9 | 40.2 | 0.00 | 0.00 | 0.00 | 33 | 1014.4 |
| 20260504183529 | 11 | 347 | 24.1 | 41.8 | 0.00 | 0.00 | 0.00 | 35 | 1014.5 |
| 20260504183146 | 11 | 319 | 25.7 | 45.1 | 0.00 | 0.00 | 0.00 | 35 | 1014.4 |
| 20260504182525 | 12 | 319 | 25.7 | 38.6 | 0.00 | 0.00 | 0.00 | 35 | 1014.4 |
| 20260504182020 | 12 | 310 | 25.7 | 40.2 | 0.00 | 0.00 | 0.00 | 35 | 1014.5 |
| 20260504181702 | 11 | 325 | 24.1 | 41.8 | 0.00 | 0.00 | 0.00 | 37 | 1014.4 |
| 20260504181027 | 11 | 311 | 27.4 | 41.8 | 0.00 | 0.00 | 0.00 | 36 | 1014.7 |
| 20260504180532 | 11 | 346 | 22.5 | 45.1 | 0.00 | 0.00 | 0.00 | 36 | 1014.5 |
| 20260504180212 | 11 | 321 | 24.1 | 43.5 | 0.00 | 0.00 | 0.00 | 37 | 1014.5 |
| 20260504175528 | 11 | 10 | 19.3 | 40.2 | 0.00 | 0.00 | 0.00 | 37 | 1014.8 |
| 20260504175032 | 11 | 304 | 29.0 | 38.6 | 0.00 | 0.00 | 0.00 | 36 | 1014.6 |
| 20260504174637 | 11 | 336 | 19.3 | 40.2 | 0.00 | 0.00 | 0.00 | 38 | 1014.7 |
| 20260504174030 | 11 | 327 | 24.1 | 40.2 | 0.00 | 0.00 | 0.00 | 35 | 1014.7 |
| 20260504173528 | 11 | 352 | 20.9 | 35.4 | 0.00 | 0.00 | 0.00 | 38 | 1014.6 |
| 20260504173213 | 11 | 296 | 17.7 | 35.4 | 0.00 | 0.00 | 0.00 | 38 | 1014.6 |
| 20260504172524 | 11 | 360 | 24.1 | 35.4 | 0.00 | 0.00 | 0.00 | 37 | 1014.5 |
| 20260504172020 | 11 | 340 | 20.9 | 33.8 | 0.00 | 0.00 | 0.00 | 38 | 1014.7 |
| 20260504171615 | 11 | 313 | 22.5 | 33.8 | 0.00 | 0.00 | 0.00 | 39 | 1014.6 |
| 20260504171021 | 11 | 344 | 20.9 | 33.8 | 0.00 | 0.00 | 0.00 | 39 | 1014.7 |
| 20260504170533 | 11 | 336 | 17.7 | 37.0 | 0.00 | 0.00 | 0.00 | 39 | 1014.6 |
| 20260504170215 | 11 | 290 | 24.1 | 37.0 | 0.00 | 0.00 | 0.00 | 38 | 1014.8 |
| 20260504160208 | 10 | 327 | 19.3 | 32.2 | 0.00 | 0.00 | 0.00 | 46 | 1014.8 |
| 20260504151015 | 10 | 319 | 20.9 | 32.2 | 0.00 | 0.00 | 0.00 | 54 | 1014.7 |
| 20260504150537 | 9 | 304 | 22.5 | 33.8 | 0.00 | 0.00 | 0.00 | 53 | 1014.9 |
| 20260504150201 | 10 | 306 | 22.5 | 33.8 | 0.00 | 0.00 | 0.00 | 54 | 1014.7 |
| 20260504141041 | 9 | 290 | 19.3 | 30.6 | 0.00 | 0.00 | 0.00 | 53 | 1014.8 |
| 20260504140513 | 10 | 311 | 17.7 | 25.7 | 0.00 | 0.00 | 0.00 | 54 | 1014.7 |
| 20260504140205 | 9 | 304 | 16.1 | 25.7 | 0.00 | 0.00 | 0.00 | 55 | 1014.6 |
| 20260504130533 | 7 | 280 | 8.0 | 14.5 | 0.00 | 0.00 | 0.00 | 56 | 1014.6 |
| 20260504130221 | 8 | 275 | 8.0 | 16.1 | 0.00 | 0.00 | 0.00 | 56 | 1014.7 |
| 20260504120253 | 7 | 281 | 11.3 | 16.1 | 0.00 | 0.00 | 0.00 | 59 | 1014.6 |
| 20260504110540 | 7 | 290 | 11.3 | 20.9 | 0.00 | 0.00 | 0.00 | 63 | 1014.8 |
| 20260504110211 | 7 | 286 | 12.9 | 20.9 | 0.00 | 0.00 | 0.00 | 62 | 1014.6 |
| 20260504100526 | 7 | 324 | 17.7 | 30.6 | 0.00 | 0.00 | 0.00 | 62 | 1014.4 |
| 20260504100150 | 7 | 339 | 19.3 | 27.4 | 0.00 | 0.00 | 0.00 | 62 | 1014.5 |
| 20260504081651 | 8 | 48 | 11.3 | 25.7 | 0.00 | 0.00 | 0.00 | 59 | 1014.2 |
| 20260504081031 | 8 | 360 | 11.3 | 27.4 | 0.00 | 0.00 | 0.00 | 58 | 1014.4 |
| 20260504080521 | 8 | 44 | 16.1 | 27.4 | 0.00 | 0.00 | 0.00 | 57 | 1014.2 |
| 20260504080209 | 9 | 19 | 16.1 | 25.7 | 0.00 | 0.00 | 0.00 | 56 | 1014.1 |
| 20260504070212 | 10 | 13 | 20.9 | 35.4 | 0.00 | 0.00 | 0.00 | 50 | 1012.9 |
| 20260504060209 | 12 | 55 | 14.5 | 29.0 | 0.00 | 0.00 | 0.00 | 38 | 1011.6 |
| 20260504050535 | 12 | 31 | 11.3 | 27.4 | 0.00 | 0.00 | 0.00 | 35 | 1010.5 |
| 20260504050119 | 13 | 31 | 14.5 | 32.2 | 0.00 | 0.00 | 0.00 | 35 | 1010.5 |
| 20260504045524 | 13 | 22 | 19.3 | 33.8 | 0.00 | 0.00 | 0.00 | 35 | 1010.2 |
| 20260504045040 | 13 | 36 | 14.5 | 35.4 | 0.00 | 0.00 | 0.00 | 35 | 1010.1 |
| 20260504044643 | 13 | 30 | 19.3 | 33.8 | 0.00 | 0.00 | 0.00 | 35 | 1010.0 |
| 20260504044023 | 13 | 60 | 17.7 | 37.0 | 0.00 | 0.00 | 0.00 | 35 | 1009.9 |
| 20260504043538 | 13 | 54 | 22.5 | 38.6 | 0.00 | 0.00 | 0.00 | 35 | 1009.7 |
| 20260504043142 | 13 | 43 | 22.5 | 45.1 | 0.00 | 0.00 | 0.00 | 35 | 1009.5 |
| 20260504042536 | 13 | 59 | 29.0 | 45.1 | 0.00 | 0.00 | 0.00 | 34 | 1009.2 |
| 20260504042040 | 13 | 49 | 24.1 | 37.0 | 0.00 | 0.00 | 0.00 | 35 | 1008.9 |
| 20260504041652 | 14 | 63 | 24.1 | 37.0 | 0.00 | 0.00 | 0.00 | 35 | 1008.8 |
| 20260504041039 | 15 | 34 | 19.3 | 35.4 | 0.00 | 0.00 | 0.00 | 36 | 1008.8 |
| 20260504040535 | 15 | 30 | 16.1 | 24.1 | 0.00 | 0.00 | 0.00 | 36 | 1008.3 |
| 20260504040135 | 15 | 360 | 6.4 | 17.7 | 0.00 | 0.00 | 0.00 | 37 | 1008.2 |
| 20260504035543 | 15 | 30 | 6.4 | 14.5 | 0.00 | 0.00 | 0.00 | 37 | 1008.0 |
| 20260504035026 | 15 | 15 | 6.4 | 16.1 | 0.00 | 0.00 | 0.00 | 36 | 1007.9 |
| 20260504034653 | 15 | 31 | 6.4 | 16.1 | 0.00 | 0.00 | 0.00 | 36 | 1007.8 |
| 20260504034024 | 15 | 31 | 6.4 | 16.1 | 0.00 | 0.00 | 0.00 | 35 | 1007.7 |
| 20260504033542 | 15 | 360 | 6.4 | 14.5 | 0.00 | 0.00 | 0.00 | 35 | 1007.8 |
| 20260504033059 | 16 | 49 | 6.4 | 16.1 | 0.00 | 0.00 | 0.00 | 34 | 1007.4 |
| 20260504032540 | 16 | 43 | 6.4 | 14.5 | 0.00 | 0.00 | 0.00 | 34 | 1007.4 |
| 20260504032021 | 16 | 31 | 6.4 | 19.3 | 0.00 | 0.00 | 0.00 | 34 | 1007.6 |
| 20260504031623 | 16 | 39 | 11.3 | 19.3 | 0.00 | 0.00 | 0.00 | 34 | 1007.4 |
| 20260504031037 | 16 | 38 | 12.9 | 19.3 | 0.00 | 0.00 | 0.00 | 33 | 1007.3 |
| 20260504030525 | 16 | 27 | 12.9 | 19.3 | 0.00 | 0.00 | 0.00 | 33 | 1007.3 |
| 20260504030135 | 16 | 360 | 9.7 | 19.3 | 0.00 | 0.00 | 0.00 | 33 | 1007.3 |
| 20260504025523 | 16 | 26 | 8.0 | 17.7 | 0.00 | 0.00 | 0.00 | 33 | 1007.3 |
| 20260504025022 | 17 | 38 | 9.7 | 19.3 | 0.00 | 0.00 | 0.00 | 32 | 1007.1 |
| 20260504024622 | 17 | 17 | 9.7 | 20.9 | 0.00 | 0.00 | 0.00 | 32 | 1007.0 |
| 20260504024044 | 17 | 15 | 11.3 | 22.5 | 0.00 | 0.00 | 0.00 | 31 | 1006.8 |
| 20260504023545 | 17 | 13 | 12.9 | 22.5 | 0.00 | 0.00 | 0.00 | 30 | 1006.9 |
| 20260504023148 | 17 | 360 | 11.3 | 20.9 | 0.00 | 0.00 | 0.00 | 30 | 1006.8 |
| 20260504022530 | 18 | 34 | 8.0 | 19.3 | 0.00 | 0.00 | 0.00 | 29 | 1006.8 |
| 20260504022042 | 18 | 46 | 9.7 | 24.1 | 0.00 | 0.00 | 0.00 | 28 | 1006.8 |
| 20260504021637 | 18 | 38 | 12.9 | 24.1 | 0.00 | 0.00 | 0.00 | 27 | 1006.7 |
| 20260504021031 | 19 | 28 | 11.3 | 20.9 | 0.00 | 0.00 | 0.00 | 27 | 1006.9 |
| 20260504020525 | 19 | 22 | 14.5 | 27.4 | 0.00 | 0.00 | 0.00 | 27 | 1006.7 |
| 20260504020159 | 20 | 28 | 14.5 | 27.4 | 0.00 | 0.00 | 0.00 | 26 | 1006.7 |
| 20260504015534 | 20 | 360 | 11.3 | 22.5 | 0.00 | 0.00 | 0.00 | 25 | 1006.7 |
| 20260504015024 | 20 | 360 | 14.5 | 22.5 | 0.00 | 0.00 | 0.00 | 25 | 1006.7 |
| 20260504014648 | 20 | 333 | 11.3 | 20.9 | 0.00 | 0.00 | 0.00 | 25 | 1006.7 |
| 20260504014043 | 21 | 40 | 11.3 | 20.9 | 0.00 | 0.00 | 0.00 | 25 | 1006.6 |
| 20260504013526 | 21 | 319 | 11.3 | 20.9 | 0.00 | 0.00 | 0.00 | 24 | 1006.5 |
| 20260504013153 | 21 | 331 | 14.5 | 22.5 | 0.00 | 0.00 | 0.00 | 23 | 1006.5 |
| 20260504012525 | 22 | 310 | 12.9 | 27.4 | 0.00 | 0.00 | 0.00 | 22 | 1006.6 |
| 20260504012026 | 22 | 324 | 12.9 | 24.1 | 0.00 | 0.00 | 0.00 | 22 | 1006.6 |
| 20260504011655 | 22 | 294 | 11.3 | 24.1 | 0.00 | 0.00 | 0.00 | 23 | 1006.6 |
| 20260504011026 | 22 | 319 | 14.5 | 24.1 | 0.00 | 0.00 | 0.00 | 23 | 1006.5 |
| 20260504010529 | 22 | 290 | 14.5 | 24.1 | 0.00 | 0.00 | 0.00 | 23 | 1006.7 |
| 20260504010202 | 22 | 300 | 17.7 | 24.1 | 0.00 | 0.00 | 0.00 | 22 | 1006.6 |
| 20260504005528 | 22 | 335 | 14.5 | 27.4 | 0.00 | 0.00 | 0.00 | 22 | 1006.7 |
| 20260504005026 | 22 | 306 | 16.1 | 29.0 | 0.00 | 0.00 | 0.00 | 23 | 1006.8 |
| 20260504004627 | 22 | 331 | 19.3 | 33.8 | 0.00 | 0.00 | 0.00 | 21 | 1006.9 |
| 20260504004037 | 22 | 319 | 16.1 | 33.8 | 0.00 | 0.00 | 0.00 | 22 | 1006.7 |
| 20260504003525 | 22 | 307 | 17.7 | 35.4 | 0.00 | 0.00 | 0.00 | 23 | 1006.9 |
| 20260504003149 | 22 | 298 | 20.9 | 35.4 | 0.00 | 0.00 | 0.00 | 22 | 1006.9 |
| 20260504002531 | 22 | 327 | 22.5 | 35.4 | 0.00 | 0.00 | 0.00 | 21 | 1006.9 |
| 20260504002027 | 22 | 321 | 17.7 | 30.6 | 0.00 | 0.00 | 0.00 | 22 | 1006.9 |
| 20260504001640 | 22 | 342 | 22.5 | 30.6 | 0.00 | 0.00 | 0.00 | 22 | 1006.9 |
| 20260504001022 | 22 | 311 | 20.9 | 30.6 | 0.00 | 0.00 | 0.00 | 21 | 1007.0 |
| 20260504000524 | 22 | 300 | 17.7 | 33.8 | 0.00 | 0.00 | 0.00 | 22 | 1007.1 |
| 20260504000158 | 22 | 309 | 20.9 | 33.8 | 0.00 | 0.00 | 0.00 | 22 | 1007.0 |
| 20260503235523 | 22 | 323 | 22.5 | 37.0 | 0.00 | 0.00 | 0.00 | 20 | 1006.9 |
| 20260503235028 | 23 | 328 | 22.5 | 33.8 | 0.00 | 0.00 | 0.00 | 20 | 1007.0 |
| 20260503234640 | 23 | 349 | 19.3 | 33.8 | 0.00 | 0.00 | 0.00 | 21 | 1006.9 |
| 20260503234027 | 22 | 323 | 20.9 | 33.8 | 0.00 | 0.00 | 0.00 | 22 | 1007.1 |
| 20260503233524 | 22 | 307 | 17.7 | 32.2 | 0.00 | 0.00 | 0.00 | 21 | 1007.0 |
| 20260503233128 | 23 | 311 | 16.1 | 32.2 | 0.00 | 0.00 | 0.00 | 22 | 1007.2 |
| 20260503232531 | 23 | 343 | 22.5 | 33.8 | 0.00 | 0.00 | 0.00 | 20 | 1007.0 |
| 20260503232027 | 23 | 307 | 22.5 | 38.6 | 0.00 | 0.00 | 0.00 | 22 | 1007.1 |
| 20260503231624 | 22 | 320 | 25.7 | 38.6 | 0.00 | 0.00 | 0.00 | 21 | 1006.9 |
| 20260503231023 | 22 | 317 | 22.5 | 37.0 | 0.00 | 0.00 | 0.00 | 21 | 1007.2 |
| 20260503230522 | 22 | 329 | 22.5 | 40.2 | 0.00 | 0.00 | 0.00 | 20 | 1007.2 |
| 20260503230131 | 23 | 360 | 19.3 | 37.0 | 0.00 | 0.00 | 0.00 | 21 | 1007.0 |
| 20260503225527 | 23 | 328 | 17.7 | 32.2 | 0.00 | 0.00 | 0.00 | 22 | 1007.3 |
| 20260503225028 | 22 | 278 | 24.1 | 32.2 | 0.00 | 0.00 | 0.00 | 20 | 1007.4 |
| 20260503224659 | 23 | 325 | 19.3 | 35.4 | 0.00 | 0.00 | 0.00 | 20 | 1007.4 |
| 20260503224030 | 23 | 307 | 20.9 | 35.4 | 0.00 | 0.00 | 0.00 | 20 | 1007.6 |
| 20260503223540 | 23 | 301 | 22.5 | 41.8 | 0.00 | 0.00 | 0.00 | 21 | 1007.5 |
| 20260503223155 | 23 | 314 | 20.9 | 41.8 | 0.00 | 0.00 | 0.00 | 20 | 1007.6 |
| 20260503222524 | 22 | 309 | 17.7 | 32.2 | 0.00 | 0.00 | 0.00 | 20 | 1007.6 |
| 20260503222026 | 22 | 352 | 14.5 | 27.4 | 0.00 | 0.00 | 0.00 | 20 | 1007.7 |
| 20260503221645 | 22 | 335 | 19.3 | 33.8 | 0.00 | 0.00 | 0.00 | 21 | 1007.6 |
| 20260503221034 | 23 | 318 | 19.3 | 33.8 | 0.00 | 0.00 | 0.00 | 22 | 1007.7 |
| 20260503220524 | 22 | 300 | 19.3 | 32.2 | 0.00 | 0.00 | 0.00 | 22 | 1007.7 |
| 20260503220145 | 22 | 287 | 19.3 | 30.6 | 0.00 | 0.00 | 0.00 | 21 | 1007.8 |
| 20260503215539 | 22 | 325 | 19.3 | 38.6 | 0.00 | 0.00 | 0.00 | 22 | 1007.9 |
| 20260503215033 | 22 | 317 | 24.1 | 38.6 | 0.00 | 0.00 | 0.00 | 20 | 1007.9 |
| 20260503214653 | 22 | 279 | 17.7 | 29.0 | 0.00 | 0.00 | 0.00 | 21 | 1007.8 |
| 20260503214027 | 22 | 290 | 17.7 | 27.4 | 0.00 | 0.00 | 0.00 | 23 | 1008.0 |
| 20260503213527 | 22 | 281 | 17.7 | 37.0 | 0.00 | 0.00 | 0.00 | 23 | 1008.0 |
| 20260503213140 | 22 | 301 | 22.5 | 37.0 | 0.00 | 0.00 | 0.00 | 23 | 1008.2 |
| 20260503212539 | 22 | 300 | 14.5 | 24.1 | 0.00 | 0.00 | 0.00 | 22 | 1008.1 |
| 20260503212029 | 23 | 338 | 16.1 | 29.0 | 0.00 | 0.00 | 0.00 | 22 | 1008.3 |
| 20260503211603 | 22 | 313 | 16.1 | 32.2 | 0.00 | 0.00 | 0.00 | 23 | 1008.2 |
| 20260503211040 | 22 | 302 | 22.5 | 33.8 | 0.00 | 0.00 | 0.00 | 20 | 1008.6 |
| 20260503210527 | 22 | 275 | 19.3 | 33.8 | 0.00 | 0.00 | 0.00 | 21 | 1008.6 |
| 20260503210211 | 22 | 315 | 17.7 | 45.1 | 0.00 | 0.00 | 0.00 | 22 | 1008.6 |
| 20260503205533 | 22 | 314 | 22.5 | 45.1 | 0.00 | 0.00 | 0.00 | 22 | 1008.7 |
| 20260503205039 | 22 | 325 | 22.5 | 38.6 | 0.00 | 0.00 | 0.00 | 20 | 1008.9 |
| 20260503204653 | 22 | 278 | 17.7 | 25.7 | 0.00 | 0.00 | 0.00 | 21 | 1008.9 |
| 20260503204023 | 22 | 310 | 16.1 | 27.4 | 0.00 | 0.00 | 0.00 | 21 | 1008.8 |
| 20260503203527 | 21 | 337 | 8.0 | 32.2 | 0.00 | 0.00 | 0.00 | 23 | 1008.8 |
| 20260503203210 | 21 | 279 | 19.3 | 32.2 | 0.00 | 0.00 | 0.00 | 23 | 1008.8 |
| 20260503202523 | 22 | 297 | 19.3 | 27.4 | 0.00 | 0.00 | 0.00 | 22 | 1009.1 |
| 20260503202037 | 21 | 292 | 16.1 | 30.6 | 0.00 | 0.00 | 0.00 | 22 | 1009.1 |
| 20260503201703 | 21 | 282 | 19.3 | 33.8 | 0.00 | 0.00 | 0.00 | 24 | 1009.3 |
| 20260503201026 | 22 | 309 | 22.5 | 33.8 | 0.00 | 0.00 | 0.00 | 22 | 1009.2 |
| 20260503200533 | 22 | 284 | 19.3 | 37.0 | 0.00 | 0.00 | 0.00 | 22 | 1009.3 |
| 20260503200204 | 21 | 272 | 14.5 | 37.0 | 0.00 | 0.00 | 0.00 | 21 | 1009.2 |
| 20260503195524 | 21 | 306 | 19.3 | 32.2 | 0.00 | 0.00 | 0.00 | 21 | 1009.4 |
| 20260503195024 | 22 | 319 | 19.3 | 35.4 | 0.00 | 0.00 | 0.00 | 21 | 1009.4 |
| 20260503194638 | 22 | 311 | 20.9 | 38.6 | 0.00 | 0.00 | 0.00 | 20 | 1009.4 |
| 20260503194028 | 22 | 307 | 25.7 | 38.6 | 0.00 | 0.00 | 0.00 | 19 | 1009.3 |
| 20260503193537 | 21 | 290 | 17.7 | 41.8 | 0.00 | 0.00 | 0.00 | 21 | 1009.5 |
| 20260503193119 | 21 | 314 | 24.1 | 41.8 | 0.00 | 0.00 | 0.00 | 20 | 1009.5 |
| 20260503192532 | 22 | 318 | 16.1 | 33.8 | 0.00 | 0.00 | 0.00 | 20 | 1009.5 |
| 20260503192029 | 22 | 288 | 16.1 | 38.6 | 0.00 | 0.00 | 0.00 | 20 | 1009.5 |
| 20260503191709 | 22 | 305 | 25.7 | 40.2 | 0.00 | 0.00 | 0.00 | 21 | 1009.6 |
| 20260503191040 | 22 | 288 | 20.9 | 33.8 | 0.00 | 0.00 | 0.00 | 20 | 1009.6 |
| 20260503190531 | 22 | 328 | 17.7 | 33.8 | 0.00 | 0.00 | 0.00 | 21 | 1009.9 |
| 20260503190209 | 22 | 348 | 19.3 | 33.8 | 0.00 | 0.00 | 0.00 | 21 | 1009.7 |